sensor_id;sensor_type;location;lat;lon;timestamp;P1;durP1;ratioP1;P2;durP2;ratioP2
24443;SDS011;13346;50.984;5.822;2022-07-21T00:00:50;6.63;;;6.00;;
24443;SDS011;13346;50.984;5.822;2022-07-21T00:03:17;8.95;;;5.38;;
24443;SDS011;13346;50.984;5.822;2022-07-21T00:05:44;6.75;;;6.10;;
24443;SDS011;13346;50.984;5.822;2022-07-21T00:08:12;5.68;;;5.07;;
24443;SDS011;13346;50.984;5.822;2022-07-21T00:10:40;7.25;;;6.53;;
24443;SDS011;13346;50.984;5.822;2022-07-21T00:13:08;5.95;;;5.43;;
24443;SDS011;13346;50.984;5.822;2022-07-21T00:15:35;6.53;;;6.13;;
24443;SDS011;13346;50.984;5.822;2022-07-21T00:18:02;6.35;;;5.85;;
24443;SDS011;13346;50.984;5.822;2022-07-21T00:20:29;6.57;;;6.00;;
24443;SDS011;13346;50.984;5.822;2022-07-21T00:22:57;5.97;;;5.45;;
24443;SDS011;13346;50.984;5.822;2022-07-21T00:25:25;6.72;;;6.22;;
24443;SDS011;13346;50.984;5.822;2022-07-21T00:27:54;6.72;;;6.13;;
24443;SDS011;13346;50.984;5.822;2022-07-21T00:30:21;6.60;;;6.10;;
24443;SDS011;13346;50.984;5.822;2022-07-21T00:32:48;7.53;;;6.10;;
24443;SDS011;13346;50.984;5.822;2022-07-21T00:35:15;7.67;;;6.97;;
24443;SDS011;13346;50.984;5.822;2022-07-21T00:37:43;6.88;;;6.38;;
24443;SDS011;13346;50.984;5.822;2022-07-21T00:40:10;6.90;;;6.40;;
24443;SDS011;13346;50.984;5.822;2022-07-21T00:42:41;7.68;;;6.97;;
24443;SDS011;13346;50.984;5.822;2022-07-21T00:45:10;6.65;;;6.15;;
24443;SDS011;13346;50.984;5.822;2022-07-21T00:47:38;7.40;;;6.90;;
24443;SDS011;13346;50.984;5.822;2022-07-21T00:50:07;7.72;;;7.13;;
24443;SDS011;13346;50.984;5.822;2022-07-21T00:52:35;8.48;;;7.28;;
24443;SDS011;13346;50.984;5.822;2022-07-21T00:55:04;7.43;;;6.93;;
24443;SDS011;13346;50.984;5.822;2022-07-21T00:57:34;7.15;;;6.55;;
24443;SDS011;13346;50.984;5.822;2022-07-21T01:00:03;8.30;;;7.23;;
24443;SDS011;13346;50.984;5.822;2022-07-21T01:02:32;7.18;;;6.63;;
24443;SDS011;13346;50.984;5.822;2022-07-21T01:05:01;8.82;;;7.93;;
24443;SDS011;13346;50.984;5.822;2022-07-21T01:07:29;7.05;;;6.40;;
24443;SDS011;13346;50.984;5.822;2022-07-21T01:09:56;7.40;;;6.82;;
24443;SDS011;13346;50.984;5.822;2022-07-21T01:12:24;7.10;;;6.50;;
24443;SDS011;13346;50.984;5.822;2022-07-21T01:14:51;7.43;;;6.82;;
24443;SDS011;13346;50.984;5.822;2022-07-21T01:17:18;7.25;;;6.63;;
24443;SDS011;13346;50.984;5.822;2022-07-21T01:19:47;7.43;;;6.20;;
24443;SDS011;13346;50.984;5.822;2022-07-21T01:22:16;7.18;;;6.57;;
24443;SDS011;13346;50.984;5.822;2022-07-21T01:24:43;6.63;;;6.20;;
24443;SDS011;13346;50.984;5.822;2022-07-21T01:27:11;6.97;;;6.53;;
24443;SDS011;13346;50.984;5.822;2022-07-21T01:29:38;7.40;;;6.80;;
24443;SDS011;13346;50.984;5.822;2022-07-21T01:32:05;7.05;;;6.40;;
24443;SDS011;13346;50.984;5.822;2022-07-21T01:34:32;7.18;;;6.68;;
24443;SDS011;13346;50.984;5.822;2022-07-21T01:37:00;7.38;;;6.82;;
24443;SDS011;13346;50.984;5.822;2022-07-21T01:39:28;6.55;;;6.03;;
24443;SDS011;13346;50.984;5.822;2022-07-21T01:42:12;6.90;;;6.50;;
24443;SDS011;13346;50.984;5.822;2022-07-21T01:44:40;7.28;;;6.57;;
24443;SDS011;13346;50.984;5.822;2022-07-21T01:47:07;6.90;;;6.40;;
24443;SDS011;13346;50.984;5.822;2022-07-21T01:49:34;4.97;;;4.57;;
24443;SDS011;13346;50.984;5.822;2022-07-21T01:52:01;7.22;;;6.72;;
24443;SDS011;13346;50.984;5.822;2022-07-21T01:54:30;6.75;;;6.20;;
24443;SDS011;13346;50.984;5.822;2022-07-21T01:56:57;9.10;;;7.03;;
24443;SDS011;13346;50.984;5.822;2022-07-21T01:59:24;7.00;;;6.50;;
24443;SDS011;13346;50.984;5.822;2022-07-21T02:01:51;7.28;;;6.78;;
24443;SDS011;13346;50.984;5.822;2022-07-21T02:04:18;7.03;;;6.40;;
24443;SDS011;13346;50.984;5.822;2022-07-21T02:06:45;7.82;;;7.10;;
24443;SDS011;13346;50.984;5.822;2022-07-21T02:09:13;7.43;;;6.72;;
24443;SDS011;13346;50.984;5.822;2022-07-21T02:11:41;8.27;;;7.30;;
24443;SDS011;13346;50.984;5.822;2022-07-21T02:14:08;8.20;;;7.50;;
24443;SDS011;13346;50.984;5.822;2022-07-21T02:16:36;7.78;;;7.18;;
24443;SDS011;13346;50.984;5.822;2022-07-21T02:19:03;7.68;;;7.18;;
24443;SDS011;13346;50.984;5.822;2022-07-21T02:21:30;7.63;;;7.03;;
24443;SDS011;13346;50.984;5.822;2022-07-21T02:23:57;8.15;;;7.35;;
24443;SDS011;13346;50.984;5.822;2022-07-21T02:26:24;8.38;;;7.63;;
24443;SDS011;13346;50.984;5.822;2022-07-21T02:28:53;7.05;;;6.43;;
24443;SDS011;13346;50.984;5.822;2022-07-21T02:31:20;7.78;;;7.15;;
24443;SDS011;13346;50.984;5.822;2022-07-21T02:33:47;7.68;;;7.07;;
24443;SDS011;13346;50.984;5.822;2022-07-21T02:36:14;7.63;;;7.13;;
24443;SDS011;13346;50.984;5.822;2022-07-21T02:38:41;8.88;;;7.97;;
24443;SDS011;13346;50.984;5.822;2022-07-21T02:41:08;7.35;;;6.75;;
24443;SDS011;13346;50.984;5.822;2022-07-21T02:43:36;8.27;;;7.50;;
24443;SDS011;13346;50.984;5.822;2022-07-21T02:46:04;8.35;;;7.75;;
24443;SDS011;13346;50.984;5.822;2022-07-21T02:48:32;9.15;;;8.20;;
24443;SDS011;13346;50.984;5.822;2022-07-21T02:50:59;8.75;;;7.03;;
24443;SDS011;13346;50.984;5.822;2022-07-21T02:53:26;8.57;;;7.97;;
24443;SDS011;13346;50.984;5.822;2022-07-21T02:55:53;8.57;;;7.78;;
24443;SDS011;13346;50.984;5.822;2022-07-21T02:58:21;8.20;;;7.57;;
24443;SDS011;13346;50.984;5.822;2022-07-21T03:00:50;9.38;;;8.57;;
24443;SDS011;13346;50.984;5.822;2022-07-21T03:03:20;8.18;;;7.40;;
24443;SDS011;13346;50.984;5.822;2022-07-21T03:05:49;9.13;;;8.30;;
24443;SDS011;13346;50.984;5.822;2022-07-21T03:08:16;8.60;;;7.68;;
24443;SDS011;13346;50.984;5.822;2022-07-21T03:10:44;9.27;;;8.02;;
24443;SDS011;13346;50.984;5.822;2022-07-21T03:13:12;8.73;;;8.13;;
24443;SDS011;13346;50.984;5.822;2022-07-21T03:15:39;10.18;;;9.27;;
24443;SDS011;13346;50.984;5.822;2022-07-21T03:18:06;10.43;;;9.35;;
24443;SDS011;13346;50.984;5.822;2022-07-21T03:20:36;8.80;;;8.10;;
24443;SDS011;13346;50.984;5.822;2022-07-21T03:23:05;9.52;;;8.38;;
24443;SDS011;13346;50.984;5.822;2022-07-21T03:25:32;8.80;;;8.00;;
24443;SDS011;13346;50.984;5.822;2022-07-21T03:28:00;8.80;;;8.15;;
24443;SDS011;13346;50.984;5.822;2022-07-21T03:30:27;7.20;;;6.68;;
24443;SDS011;13346;50.984;5.822;2022-07-21T03:32:55;9.85;;;9.00;;
24443;SDS011;13346;50.984;5.822;2022-07-21T03:35:23;10.40;;;9.30;;
24443;SDS011;13346;50.984;5.822;2022-07-21T03:37:52;9.73;;;8.93;;
24443;SDS011;13346;50.984;5.822;2022-07-21T03:40:20;10.55;;;9.52;;
24443;SDS011;13346;50.984;5.822;2022-07-21T03:42:49;9.93;;;9.00;;
24443;SDS011;13346;50.984;5.822;2022-07-21T03:45:17;11.50;;;9.75;;
24443;SDS011;13346;50.984;5.822;2022-07-21T03:47:45;8.68;;;7.95;;
24443;SDS011;13346;50.984;5.822;2022-07-21T03:50:12;10.10;;;9.10;;
24443;SDS011;13346;50.984;5.822;2022-07-21T03:52:42;10.57;;;9.57;;
24443;SDS011;13346;50.984;5.822;2022-07-21T03:55:11;10.00;;;9.07;;
24443;SDS011;13346;50.984;5.822;2022-07-21T03:57:40;9.82;;;9.02;;
24443;SDS011;13346;50.984;5.822;2022-07-21T04:00:10;11.43;;;10.23;;
24443;SDS011;13346;50.984;5.822;2022-07-21T04:02:40;9.70;;;8.93;;
24443;SDS011;13346;50.984;5.822;2022-07-21T04:05:09;10.52;;;9.52;;
24443;SDS011;13346;50.984;5.822;2022-07-21T04:07:38;10.23;;;9.37;;
24443;SDS011;13346;50.984;5.822;2022-07-21T04:10:06;10.20;;;9.18;;
24443;SDS011;13346;50.984;5.822;2022-07-21T04:12:36;10.27;;;9.18;;
24443;SDS011;13346;50.984;5.822;2022-07-21T04:15:03;10.40;;;9.70;;
24443;SDS011;13346;50.984;5.822;2022-07-21T04:17:32;10.27;;;9.38;;
24443;SDS011;13346;50.984;5.822;2022-07-21T04:19:59;11.73;;;10.25;;
24443;SDS011;13346;50.984;5.822;2022-07-21T04:22:26;11.30;;;9.88;;
24443;SDS011;13346;50.984;5.822;2022-07-21T04:24:53;10.33;;;9.53;;
24443;SDS011;13346;50.984;5.822;2022-07-21T04:27:20;11.45;;;10.25;;
24443;SDS011;13346;50.984;5.822;2022-07-21T04:29:49;10.45;;;9.45;;
24443;SDS011;13346;50.984;5.822;2022-07-21T04:32:16;11.30;;;10.05;;
24443;SDS011;13346;50.984;5.822;2022-07-21T04:34:43;11.50;;;10.15;;
24443;SDS011;13346;50.984;5.822;2022-07-21T04:37:11;10.15;;;9.32;;
24443;SDS011;13346;50.984;5.822;2022-07-21T04:39:38;10.45;;;9.35;;
24443;SDS011;13346;50.984;5.822;2022-07-21T04:42:05;10.20;;;8.75;;
24443;SDS011;13346;50.984;5.822;2022-07-21T04:44:33;10.10;;;8.55;;
24443;SDS011;13346;50.984;5.822;2022-07-21T04:47:01;10.60;;;9.73;;
24443;SDS011;13346;50.984;5.822;2022-07-21T04:49:28;10.15;;;9.15;;
24443;SDS011;13346;50.984;5.822;2022-07-21T04:51:56;11.05;;;9.88;;
24443;SDS011;13346;50.984;5.822;2022-07-21T04:54:23;9.52;;;8.73;;
24443;SDS011;13346;50.984;5.822;2022-07-21T04:56:50;9.98;;;8.63;;
24443;SDS011;13346;50.984;5.822;2022-07-21T04:59:17;11.40;;;9.70;;
24443;SDS011;13346;50.984;5.822;2022-07-21T05:01:44;10.00;;;9.20;;
24443;SDS011;13346;50.984;5.822;2022-07-21T05:04:13;8.68;;;7.88;;
24443;SDS011;13346;50.984;5.822;2022-07-21T05:06:40;10.07;;;9.07;;
24443;SDS011;13346;50.984;5.822;2022-07-21T05:09:07;11.43;;;9.52;;
24443;SDS011;13346;50.984;5.822;2022-07-21T05:11:34;9.30;;;8.50;;
24443;SDS011;13346;50.984;5.822;2022-07-21T05:14:01;8.07;;;7.43;;
24443;SDS011;13346;50.984;5.822;2022-07-21T05:16:29;8.18;;;7.40;;
24443;SDS011;13346;50.984;5.822;2022-07-21T05:18:56;9.45;;;8.50;;
24443;SDS011;13346;50.984;5.822;2022-07-21T05:21:25;7.78;;;6.95;;
24443;SDS011;13346;50.984;5.822;2022-07-21T05:23:52;7.28;;;6.68;;
24443;SDS011;13346;50.984;5.822;2022-07-21T05:26:19;6.72;;;6.22;;
24443;SDS011;13346;50.984;5.822;2022-07-21T05:28:47;7.30;;;6.65;;
24443;SDS011;13346;50.984;5.822;2022-07-21T05:31:14;7.38;;;5.68;;
24443;SDS011;13346;50.984;5.822;2022-07-21T05:33:41;7.55;;;6.82;;
24443;SDS011;13346;50.984;5.822;2022-07-21T05:36:08;7.32;;;6.75;;
24443;SDS011;13346;50.984;5.822;2022-07-21T05:38:37;7.97;;;7.22;;
24443;SDS011;13346;50.984;5.822;2022-07-21T05:41:05;8.55;;;6.55;;
24443;SDS011;13346;50.984;5.822;2022-07-21T05:43:32;9.07;;;7.05;;
24443;SDS011;13346;50.984;5.822;2022-07-21T05:45:59;7.40;;;6.63;;
24443;SDS011;13346;50.984;5.822;2022-07-21T05:48:27;7.55;;;7.05;;
24443;SDS011;13346;50.984;5.822;2022-07-21T05:50:54;7.90;;;7.38;;
24443;SDS011;13346;50.984;5.822;2022-07-21T05:53:21;9.63;;;7.07;;
24443;SDS011;13346;50.984;5.822;2022-07-21T05:55:49;13.57;;;7.43;;
24443;SDS011;13346;50.984;5.822;2022-07-21T05:58:17;9.55;;;7.60;;
24443;SDS011;13346;50.984;5.822;2022-07-21T06:00:48;11.15;;;7.50;;
24443;SDS011;13346;50.984;5.822;2022-07-21T06:03:33;8.25;;;7.22;;
24443;SDS011;13346;50.984;5.822;2022-07-21T06:06:01;8.18;;;6.28;;
24443;SDS011;13346;50.984;5.822;2022-07-21T06:08:29;8.07;;;7.28;;
24443;SDS011;13346;50.984;5.822;2022-07-21T06:10:58;8.10;;;7.45;;
24443;SDS011;13346;50.984;5.822;2022-07-21T06:13:25;7.10;;;6.60;;
24443;SDS011;13346;50.984;5.822;2022-07-21T06:15:52;7.25;;;6.47;;
24443;SDS011;13346;50.984;5.822;2022-07-21T06:18:20;7.43;;;6.82;;
24443;SDS011;13346;50.984;5.822;2022-07-21T06:20:47;7.72;;;7.13;;
24443;SDS011;13346;50.984;5.822;2022-07-21T06:23:14;7.80;;;6.45;;
24443;SDS011;13346;50.984;5.822;2022-07-21T06:25:41;7.20;;;6.28;;
24443;SDS011;13346;50.984;5.822;2022-07-21T06:28:10;8.10;;;6.38;;
24443;SDS011;13346;50.984;5.822;2022-07-21T06:30:37;7.88;;;6.75;;
24443;SDS011;13346;50.984;5.822;2022-07-21T06:33:05;8.30;;;7.70;;
24443;SDS011;13346;50.984;5.822;2022-07-21T06:35:32;7.38;;;6.78;;
24443;SDS011;13346;50.984;5.822;2022-07-21T06:37:59;7.43;;;6.78;;
24443;SDS011;13346;50.984;5.822;2022-07-21T06:40:26;12.02;;;7.88;;
24443;SDS011;13346;50.984;5.822;2022-07-21T06:42:53;7.72;;;7.00;;
24443;SDS011;13346;50.984;5.822;2022-07-21T06:45:22;9.10;;;7.75;;
24443;SDS011;13346;50.984;5.822;2022-07-21T06:47:50;8.68;;;7.80;;
24443;SDS011;13346;50.984;5.822;2022-07-21T06:50:24;7.88;;;7.00;;
24443;SDS011;13346;50.984;5.822;2022-07-21T06:52:51;7.28;;;6.22;;
24443;SDS011;13346;50.984;5.822;2022-07-21T06:55:19;8.25;;;7.55;;
24443;SDS011;13346;50.984;5.822;2022-07-21T06:57:46;7.88;;;7.05;;
24443;SDS011;13346;50.984;5.822;2022-07-21T07:00:13;7.72;;;7.03;;
24443;SDS011;13346;50.984;5.822;2022-07-21T07:02:42;7.40;;;6.22;;
24443;SDS011;13346;50.984;5.822;2022-07-21T07:05:09;7.45;;;6.75;;
24443;SDS011;13346;50.984;5.822;2022-07-21T07:07:37;7.15;;;6.53;;
24443;SDS011;13346;50.984;5.822;2022-07-21T07:10:04;7.13;;;6.43;;
24443;SDS011;13346;50.984;5.822;2022-07-21T07:12:32;8.23;;;6.60;;
24443;SDS011;13346;50.984;5.822;2022-07-21T07:15:00;7.07;;;6.47;;
24443;SDS011;13346;50.984;5.822;2022-07-21T07:17:28;7.05;;;6.15;;
24443;SDS011;13346;50.984;5.822;2022-07-21T07:19:56;6.80;;;6.28;;
24443;SDS011;13346;50.984;5.822;2022-07-21T07:22:23;5.57;;;5.18;;
24443;SDS011;13346;50.984;5.822;2022-07-21T07:24:51;8.07;;;5.68;;
24443;SDS011;13346;50.984;5.822;2022-07-21T07:27:18;6.57;;;6.03;;
24443;SDS011;13346;50.984;5.822;2022-07-21T07:29:45;8.85;;;5.43;;
24443;SDS011;13346;50.984;5.822;2022-07-21T07:32:13;7.50;;;5.95;;
24443;SDS011;13346;50.984;5.822;2022-07-21T07:34:40;6.18;;;5.70;;
24443;SDS011;13346;50.984;5.822;2022-07-21T07:37:08;5.90;;;5.43;;
24443;SDS011;13346;50.984;5.822;2022-07-21T07:39:36;7.28;;;5.45;;
24443;SDS011;13346;50.984;5.822;2022-07-21T07:42:04;6.00;;;5.50;;
24443;SDS011;13346;50.984;5.822;2022-07-21T07:44:31;7.53;;;6.75;;
24443;SDS011;13346;50.984;5.822;2022-07-21T07:46:58;7.55;;;6.07;;
24443;SDS011;13346;50.984;5.822;2022-07-21T07:49:27;6.65;;;6.10;;
24443;SDS011;13346;50.984;5.822;2022-07-21T07:51:55;7.03;;;5.72;;
24443;SDS011;13346;50.984;5.822;2022-07-21T07:54:24;7.65;;;6.00;;
24443;SDS011;13346;50.984;5.822;2022-07-21T07:56:51;10.65;;;6.68;;
24443;SDS011;13346;50.984;5.822;2022-07-21T07:59:18;10.27;;;6.45;;
24443;SDS011;13346;50.984;5.822;2022-07-21T08:01:45;5.97;;;5.47;;
24443;SDS011;13346;50.984;5.822;2022-07-21T08:04:12;7.22;;;6.03;;
24443;SDS011;13346;50.984;5.822;2022-07-21T08:06:40;7.05;;;5.80;;
24443;SDS011;13346;50.984;5.822;2022-07-21T08:09:07;6.43;;;5.93;;
24443;SDS011;13346;50.984;5.822;2022-07-21T08:11:36;9.88;;;5.82;;
24443;SDS011;13346;50.984;5.822;2022-07-21T08:14:03;6.40;;;5.50;;
24443;SDS011;13346;50.984;5.822;2022-07-21T08:16:30;7.00;;;6.18;;
24443;SDS011;13346;50.984;5.822;2022-07-21T08:18:59;6.28;;;5.53;;
24443;SDS011;13346;50.984;5.822;2022-07-21T08:21:26;6.55;;;5.82;;
24443;SDS011;13346;50.984;5.822;2022-07-21T08:23:56;7.07;;;6.43;;
24443;SDS011;13346;50.984;5.822;2022-07-21T08:26:23;14.63;;;7.15;;
24443;SDS011;13346;50.984;5.822;2022-07-21T08:28:52;8.20;;;7.38;;
24443;SDS011;13346;50.984;5.822;2022-07-21T08:31:20;7.70;;;6.90;;
24443;SDS011;13346;50.984;5.822;2022-07-21T08:33:47;8.15;;;7.35;;
24443;SDS011;13346;50.984;5.822;2022-07-21T08:36:15;12.95;;;8.93;;
24443;SDS011;13346;50.984;5.822;2022-07-21T08:38:42;9.48;;;8.55;;
24443;SDS011;13346;50.984;5.822;2022-07-21T08:41:09;16.05;;;8.30;;
24443;SDS011;13346;50.984;5.822;2022-07-21T08:43:36;9.65;;;8.68;;
24443;SDS011;13346;50.984;5.822;2022-07-21T08:46:05;12.95;;;9.90;;
24443;SDS011;13346;50.984;5.822;2022-07-21T08:48:32;10.77;;;9.70;;
24443;SDS011;13346;50.984;5.822;2022-07-21T08:50:59;13.82;;;11.18;;
24443;SDS011;13346;50.984;5.822;2022-07-21T08:53:26;12.93;;;10.38;;
24443;SDS011;13346;50.984;5.822;2022-07-21T08:55:54;11.35;;;10.27;;
24443;SDS011;13346;50.984;5.822;2022-07-21T08:58:22;13.45;;;11.65;;
24443;SDS011;13346;50.984;5.822;2022-07-21T09:00:49;14.02;;;12.73;;
24443;SDS011;13346;50.984;5.822;2022-07-21T09:03:18;13.25;;;11.77;;
24443;SDS011;13346;50.984;5.822;2022-07-21T09:06:00;12.43;;;11.25;;
24443;SDS011;13346;50.984;5.822;2022-07-21T09:08:32;12.05;;;10.82;;
24443;SDS011;13346;50.984;5.822;2022-07-21T09:11:15;12.00;;;10.80;;
24443;SDS011;13346;50.984;5.822;2022-07-21T09:13:44;14.25;;;12.75;;
24443;SDS011;13346;50.984;5.822;2022-07-21T09:16:22;14.25;;;12.80;;
24443;SDS011;13346;50.984;5.822;2022-07-21T09:19:01;14.05;;;12.65;;
24443;SDS011;13346;50.984;5.822;2022-07-21T09:21:28;11.38;;;10.27;;
24443;SDS011;13346;50.984;5.822;2022-07-21T09:24:10;13.02;;;11.65;;
24443;SDS011;13346;50.984;5.822;2022-07-21T09:26:57;16.48;;;11.65;;
24443;SDS011;13346;50.984;5.822;2022-07-21T09:29:42;15.30;;;13.73;;
24443;SDS011;13346;50.984;5.822;2022-07-21T09:32:15;14.38;;;13.02;;
24443;SDS011;13346;50.984;5.822;2022-07-21T09:34:59;13.68;;;12.40;;
24443;SDS011;13346;50.984;5.822;2022-07-21T09:37:29;14.38;;;12.73;;
24443;SDS011;13346;50.984;5.822;2022-07-21T09:39:57;16.58;;;12.95;;
24443;SDS011;13346;50.984;5.822;2022-07-21T09:42:30;17.02;;;14.48;;
24443;SDS011;13346;50.984;5.822;2022-07-21T09:44:59;13.38;;;12.02;;
24443;SDS011;13346;50.984;5.822;2022-07-21T09:47:28;12.15;;;10.95;;
24443;SDS011;13346;50.984;5.822;2022-07-21T09:49:59;13.50;;;12.23;;
24443;SDS011;13346;50.984;5.822;2022-07-21T09:52:27;12.88;;;11.80;;
24443;SDS011;13346;50.984;5.822;2022-07-21T09:54:56;12.50;;;11.15;;
24443;SDS011;13346;50.984;5.822;2022-07-21T09:57:25;11.60;;;10.32;;
24443;SDS011;13346;50.984;5.822;2022-07-21T09:59:53;10.48;;;9.43;;
24443;SDS011;13346;50.984;5.822;2022-07-21T10:02:22;11.90;;;10.70;;
24443;SDS011;13346;50.984;5.822;2022-07-21T10:04:54;8.98;;;8.18;;
24443;SDS011;13346;50.984;5.822;2022-07-21T10:07:25;11.07;;;9.30;;
24443;SDS011;13346;50.984;5.822;2022-07-21T10:09:53;9.48;;;8.57;;
24443;SDS011;13346;50.984;5.822;2022-07-21T10:12:21;9.68;;;8.88;;
24443;SDS011;13346;50.984;5.822;2022-07-21T10:14:48;9.02;;;8.32;;
24443;SDS011;13346;50.984;5.822;2022-07-21T10:17:17;9.05;;;8.23;;
24443;SDS011;13346;50.984;5.822;2022-07-21T10:19:49;9.10;;;8.30;;
24443;SDS011;13346;50.984;5.822;2022-07-21T10:22:25;10.73;;;8.77;;
24443;SDS011;13346;50.984;5.822;2022-07-21T10:25:03;8.98;;;8.32;;
24443;SDS011;13346;50.984;5.822;2022-07-21T10:27:32;8.15;;;7.13;;
24443;SDS011;13346;50.984;5.822;2022-07-21T10:30:00;8.90;;;7.32;;
24443;SDS011;13346;50.984;5.822;2022-07-21T10:32:29;9.70;;;8.85;;
24443;SDS011;13346;50.984;5.822;2022-07-21T10:34:58;10.23;;;9.52;;
24443;SDS011;13346;50.984;5.822;2022-07-21T10:40:34;10.60;;;9.60;;
24443;SDS011;13346;50.984;5.822;2022-07-21T10:49:01;12.93;;;11.65;;
24443;SDS011;13346;50.984;5.822;2022-07-21T10:51:30;13.80;;;12.35;;
24443;SDS011;13346;50.984;5.822;2022-07-21T10:54:20;12.68;;;11.48;;
24443;SDS011;13346;50.984;5.822;2022-07-21T11:02:45;15.90;;;14.23;;
24443;SDS011;13346;50.984;5.822;2022-07-21T11:05:13;13.73;;;12.40;;
24443;SDS011;13346;50.984;5.822;2022-07-21T11:10:43;18.77;;;14.27;;
24443;SDS011;13346;50.984;5.822;2022-07-21T11:13:11;15.70;;;13.48;;
24443;SDS011;13346;50.984;5.822;2022-07-21T11:15:43;17.08;;;13.00;;
24443;SDS011;13346;50.984;5.822;2022-07-21T11:18:17;15.27;;;13.27;;
24443;SDS011;13346;50.984;5.822;2022-07-21T11:21:00;12.68;;;11.15;;
24443;SDS011;13346;50.984;5.822;2022-07-21T11:23:38;12.27;;;11.07;;
24443;SDS011;13346;50.984;5.822;2022-07-21T11:26:08;15.23;;;13.73;;
24443;SDS011;13346;50.984;5.822;2022-07-21T11:28:36;13.60;;;12.38;;
24443;SDS011;13346;50.984;5.822;2022-07-21T11:31:08;12.73;;;11.48;;
24443;SDS011;13346;50.984;5.822;2022-07-21T11:33:37;11.50;;;10.50;;
24443;SDS011;13346;50.984;5.822;2022-07-21T11:36:04;12.77;;;11.40;;
24443;SDS011;13346;50.984;5.822;2022-07-21T11:38:32;11.80;;;10.25;;
24443;SDS011;13346;50.984;5.822;2022-07-21T11:41:15;8.88;;;8.07;;
24443;SDS011;13346;50.984;5.822;2022-07-21T11:43:44;6.35;;;5.93;;
24443;SDS011;13346;50.984;5.822;2022-07-21T11:46:12;9.48;;;8.57;;
24443;SDS011;13346;50.984;5.822;2022-07-21T11:48:40;9.15;;;8.38;;
24443;SDS011;13346;50.984;5.822;2022-07-21T11:51:07;8.30;;;7.60;;
24443;SDS011;13346;50.984;5.822;2022-07-21T11:53:34;8.52;;;7.68;;
24443;SDS011;13346;50.984;5.822;2022-07-21T11:56:12;7.38;;;6.78;;
24443;SDS011;13346;50.984;5.822;2022-07-21T11:58:41;9.75;;;8.75;;
24443;SDS011;13346;50.984;5.822;2022-07-21T12:01:09;9.60;;;8.70;;
24443;SDS011;13346;50.984;5.822;2022-07-21T12:03:46;8.85;;;8.07;;
24443;SDS011;13346;50.984;5.822;2022-07-21T12:06:14;8.38;;;7.68;;
24443;SDS011;13346;50.984;5.822;2022-07-21T12:08:42;8.82;;;8.23;;
24443;SDS011;13346;50.984;5.822;2022-07-21T12:11:10;7.55;;;6.85;;
24443;SDS011;13346;50.984;5.822;2022-07-21T12:13:52;7.47;;;6.85;;
24443;SDS011;13346;50.984;5.822;2022-07-21T12:16:21;8.45;;;7.70;;
24443;SDS011;13346;50.984;5.822;2022-07-21T12:18:49;7.75;;;7.25;;
24443;SDS011;13346;50.984;5.822;2022-07-21T12:21:40;9.15;;;8.07;;
24443;SDS011;13346;50.984;5.822;2022-07-21T12:24:10;7.38;;;6.88;;
24443;SDS011;13346;50.984;5.822;2022-07-21T12:26:37;8.25;;;7.63;;
24443;SDS011;13346;50.984;5.822;2022-07-21T12:29:06;8.50;;;7.80;;
24443;SDS011;13346;50.984;5.822;2022-07-21T12:31:36;8.48;;;7.63;;
24443;SDS011;13346;50.984;5.822;2022-07-21T12:34:10;8.30;;;7.32;;
24443;SDS011;13346;50.984;5.822;2022-07-21T12:36:39;7.82;;;7.13;;
24443;SDS011;13346;50.984;5.822;2022-07-21T12:39:13;7.75;;;6.93;;
24443;SDS011;13346;50.984;5.822;2022-07-21T12:42:02;7.38;;;6.88;;
24443;SDS011;13346;50.984;5.822;2022-07-21T12:44:32;8.52;;;7.60;;
24443;SDS011;13346;50.984;5.822;2022-07-21T12:47:13;7.47;;;6.70;;
24443;SDS011;13346;50.984;5.822;2022-07-21T12:49:57;9.57;;;7.47;;
24443;SDS011;13346;50.984;5.822;2022-07-21T12:52:29;8.63;;;7.93;;
24443;SDS011;13346;50.984;5.822;2022-07-21T12:54:57;10.52;;;8.90;;
24443;SDS011;13346;50.984;5.822;2022-07-21T12:57:25;10.02;;;9.23;;
24443;SDS011;13346;50.984;5.822;2022-07-21T12:59:55;8.85;;;8.15;;
24443;SDS011;13346;50.984;5.822;2022-07-21T13:02:23;9.05;;;8.23;;
24443;SDS011;13346;50.984;5.822;2022-07-21T13:04:51;10.25;;;7.32;;
24443;SDS011;13346;50.984;5.822;2022-07-21T13:07:19;9.45;;;6.90;;
24443;SDS011;13346;50.984;5.822;2022-07-21T13:09:46;9.50;;;7.07;;
24443;SDS011;13346;50.984;5.822;2022-07-21T13:12:13;6.45;;;5.88;;
24443;SDS011;13346;50.984;5.822;2022-07-21T13:14:41;5.97;;;5.57;;
24443;SDS011;13346;50.984;5.822;2022-07-21T13:17:09;6.38;;;5.97;;
24443;SDS011;13346;50.984;5.822;2022-07-21T13:19:36;5.70;;;5.32;;
24443;SDS011;13346;50.984;5.822;2022-07-21T13:22:03;6.22;;;5.60;;
24443;SDS011;13346;50.984;5.822;2022-07-21T13:24:31;6.68;;;6.07;;
24443;SDS011;13346;50.984;5.822;2022-07-21T13:26:58;7.05;;;6.47;;
24443;SDS011;13346;50.984;5.822;2022-07-21T13:29:25;6.18;;;5.57;;
24443;SDS011;13346;50.984;5.822;2022-07-21T13:31:52;5.22;;;4.80;;
24443;SDS011;13346;50.984;5.822;2022-07-21T13:34:20;3.33;;;3.13;;
24443;SDS011;13346;50.984;5.822;2022-07-21T13:36:48;4.85;;;4.18;;
24443;SDS011;13346;50.984;5.822;2022-07-21T13:39:15;6.00;;;4.95;;
24443;SDS011;13346;50.984;5.822;2022-07-21T13:41:42;4.63;;;4.32;;
24443;SDS011;13346;50.984;5.822;2022-07-21T13:44:09;4.30;;;4.07;;
24443;SDS011;13346;50.984;5.822;2022-07-21T13:46:36;4.72;;;4.30;;
24443;SDS011;13346;50.984;5.822;2022-07-21T13:49:04;5.50;;;5.10;;
24443;SDS011;13346;50.984;5.822;2022-07-21T13:51:32;4.68;;;4.38;;
24443;SDS011;13346;50.984;5.822;2022-07-21T13:53:59;4.10;;;3.78;;
24443;SDS011;13346;50.984;5.822;2022-07-21T13:56:26;3.38;;;3.17;;
24443;SDS011;13346;50.984;5.822;2022-07-21T13:58:54;3.97;;;3.67;;
24443;SDS011;13346;50.984;5.822;2022-07-21T14:01:21;3.67;;;3.38;;
24443;SDS011;13346;50.984;5.822;2022-07-21T14:03:49;3.00;;;2.70;;
